Aguenar Hadj Bey Akhamok Airport


Codes: DAAT/TMR
Name: Aguenar Hadj Bey Akhamok Airport
City: Tamanrasset
Country: Algeria
Elevation: 4518 ft.
Wikipedia:

Photos at Aguenar Hadj Bey Akhamok Airport


   Photos courtesy of SpottingLog. You can add your own sightings and photos by signing up for a free trial today.



No photos found.

Weather at Aguenar Hadj Bey Akhamok Airport


Time (UTC)DescriptionTempratureWindCloud coverageVisibilityPressureHumidity
17-Jun-2024 06:00Clear Sky24°C13 mph, 0%10000m1021hPa11%
17-Jun-2024 09:00Clear Sky27°C18 mph, E0%10000m1019hPa10%
17-Jun-2024 12:00Clear Sky32°C18 mph, E0%10000m1016hPa9%
17-Jun-2024 15:00Clear Sky37°C22 mph, E2%10000m1011hPa6%
17-Jun-2024 18:00Clear Sky35°C16 mph, E3%10000m1012hPa7%
17-Jun-2024 21:00Clear Sky32°C11 mph, E0%10000m1014hPa9%
18-Jun-2024 00:00Clear Sky30°C9 mph, NE0%10000m1014hPa10%
18-Jun-2024 03:00Clear Sky29°C11 mph, NE0%10000m1014hPa10%
18-Jun-2024 06:00Clear Sky29°C13 mph, E0%10000m1015hPa10%
18-Jun-2024 09:00Clear Sky35°C18 mph, SE1%10000m1015hPa8%
18-Jun-2024 12:00Clear Sky37°C16 mph, E1%10000m1014hPa7%
18-Jun-2024 15:00Clear Sky37°C16 mph, E2%10000m1012hPa7%
18-Jun-2024 18:00Clear Sky36°C11 mph, E2%10000m1011hPa7%
18-Jun-2024 21:00Clear Sky32°C11 mph, E0%10000m1013hPa9%
19-Jun-2024 00:00Clear Sky31°C11 mph, E0%10000m1012hPa10%
19-Jun-2024 03:00Clear Sky30°C11 mph, E3%10000m1011hPa11%
19-Jun-2024 06:00Clear Sky30°C13 mph, E10%10000m1012hPa12%
19-Jun-2024 09:00Clear Sky36°C16 mph, E1%10000m1012hPa8%
19-Jun-2024 12:00Clear Sky38°C11 mph, SE0%10000m1010hPa7%
19-Jun-2024 15:00Broken Clouds38°C2 mph, S57%10000m1008hPa7%
19-Jun-2024 18:00Broken Clouds35°C18 mph, N76%10000m1009hPa10%
19-Jun-2024 21:00Overcast Clouds34°C18 mph, NE100%10000m1011hPa11%
20-Jun-2024 00:00Overcast Clouds33°C9 mph, SE100%10000m1010hPa11%
20-Jun-2024 03:00Few Clouds30°C22 mph, E14%10000m1010hPa12%
20-Jun-2024 06:00Clear Sky30°C18 mph, E7%10000m1010hPa13%
20-Jun-2024 09:00Clear Sky35°C16 mph, E0%10000m1010hPa9%
20-Jun-2024 12:00Clear Sky38°C9 mph, S0%10000m1008hPa7%
20-Jun-2024 15:00Broken Clouds39°C9 mph, W76%10000m1006hPa6%
20-Jun-2024 18:00Overcast Clouds37°C11 mph, NW86%10000m1007hPa5%
20-Jun-2024 21:00Overcast Clouds33°C7 mph, S87%10000m1010hPa9%
21-Jun-2024 00:00Broken Clouds31°C4 mph, E57%10000m1009hPa11%
21-Jun-2024 03:00Clear Sky28°C11 mph, S0%10000m1011hPa14%
21-Jun-2024 06:00Clear Sky27°C4 mph, E0%10000m1012hPa25%
21-Jun-2024 09:00Clear Sky32°C9 mph, S0%10000m1012hPa22%
21-Jun-2024 12:00Clear Sky37°C16 mph, S0%10000m1010hPa13%
21-Jun-2024 15:00Few Clouds37°C13 mph, SW22%10000m1008hPa11%
21-Jun-2024 18:00Broken Clouds33°C16 mph, NE62%10000m1011hPa16%
21-Jun-2024 21:00Overcast Clouds33°C9 mph, NE100%10000m1010hPa16%
22-Jun-2024 00:00Overcast Clouds31°C2 mph, SE97%10000m1010hPa18%
22-Jun-2024 03:00Broken Clouds27°C4 mph, S70%10000m1012hPa28%